sensor_id;sensor_type;location;lat;lon;timestamp;temperature;humidity
17370;DHT22;8802;52.402;4.920;2024-01-11T00:00:19;2.10;98.80
17370;DHT22;8802;52.402;4.920;2024-01-11T00:02:45;2.10;98.80
17370;DHT22;8802;52.402;4.920;2024-01-11T00:05:12;2.20;98.90
17370;DHT22;8802;52.402;4.920;2024-01-11T00:07:39;2.20;98.90
17370;DHT22;8802;52.402;4.920;2024-01-11T00:10:06;2.20;98.90
17370;DHT22;8802;52.402;4.920;2024-01-11T00:12:34;2.20;99.00
17370;DHT22;8802;52.402;4.920;2024-01-11T00:15:01;2.30;99.00
17370;DHT22;8802;52.402;4.920;2024-01-11T00:17:29;2.30;99.10
17370;DHT22;8802;52.402;4.920;2024-01-11T00:19:56;2.30;99.00
17370;DHT22;8802;52.402;4.920;2024-01-11T00:22:23;2.40;99.10
17370;DHT22;8802;52.402;4.920;2024-01-11T00:24:50;2.40;99.10
17370;DHT22;8802;52.402;4.920;2024-01-11T00:27:16;2.40;99.10
17370;DHT22;8802;52.402;4.920;2024-01-11T00:29:43;2.40;99.20
17370;DHT22;8802;52.402;4.920;2024-01-11T00:32:10;2.40;99.10
17370;DHT22;8802;52.402;4.920;2024-01-11T00:34:38;2.40;99.10
17370;DHT22;8802;52.402;4.920;2024-01-11T00:37:05;2.40;99.10
17370;DHT22;8802;52.402;4.920;2024-01-11T00:39:32;2.40;99.10
17370;DHT22;8802;52.402;4.920;2024-01-11T00:41:59;2.40;99.10
17370;DHT22;8802;52.402;4.920;2024-01-11T00:44:26;2.40;99.10
17370;DHT22;8802;52.402;4.920;2024-01-11T00:46:52;2.40;99.10
17370;DHT22;8802;52.402;4.920;2024-01-11T00:49:20;2.40;99.10
17370;DHT22;8802;52.402;4.920;2024-01-11T00:51:49;2.40;99.10
17370;DHT22;8802;52.402;4.920;2024-01-11T00:54:15;2.30;99.00
17370;DHT22;8802;52.402;4.920;2024-01-11T00:56:42;2.30;99.10
17370;DHT22;8802;52.402;4.920;2024-01-11T00:59:09;2.30;99.20
17370;DHT22;8802;52.402;4.920;2024-01-11T01:01:36;2.30;99.30
17370;DHT22;8802;52.402;4.920;2024-01-11T01:04:03;2.30;99.30
17370;DHT22;8802;52.402;4.920;2024-01-11T01:06:30;2.40;99.50
17370;DHT22;8802;52.402;4.920;2024-01-11T01:08:58;2.30;99.50
17370;DHT22;8802;52.402;4.920;2024-01-11T01:11:25;2.30;99.50
17370;DHT22;8802;52.402;4.920;2024-01-11T01:13:51;2.30;99.60
17370;DHT22;8802;52.402;4.920;2024-01-11T01:16:18;2.30;99.50
17370;DHT22;8802;52.402;4.920;2024-01-11T01:18:45;2.30;99.50
17370;DHT22;8802;52.402;4.920;2024-01-11T01:21:12;2.30;99.60
17370;DHT22;8802;52.402;4.920;2024-01-11T01:23:39;2.30;99.60
17370;DHT22;8802;52.402;4.920;2024-01-11T01:26:07;2.30;99.60
17370;DHT22;8802;52.402;4.920;2024-01-11T01:28:34;2.30;99.90
17370;DHT22;8802;52.402;4.920;2024-01-11T01:31:01;2.40;99.50
17370;DHT22;8802;52.402;4.920;2024-01-11T01:33:28;2.30;99.50
17370;DHT22;8802;52.402;4.920;2024-01-11T01:35:55;2.30;99.50
17370;DHT22;8802;52.402;4.920;2024-01-11T01:38:22;2.30;99.60
17370;DHT22;8802;52.402;4.920;2024-01-11T01:40:49;2.40;99.60
17370;DHT22;8802;52.402;4.920;2024-01-11T01:43:18;2.40;99.50
17370;DHT22;8802;52.402;4.920;2024-01-11T01:45:44;2.40;99.50
17370;DHT22;8802;52.402;4.920;2024-01-11T01:48:12;2.40;99.50
17370;DHT22;8802;52.402;4.920;2024-01-11T01:50:38;2.40;99.50
17370;DHT22;8802;52.402;4.920;2024-01-11T01:53:06;2.30;99.40
17370;DHT22;8802;52.402;4.920;2024-01-11T01:55:33;2.30;99.40
17370;DHT22;8802;52.402;4.920;2024-01-11T01:58:00;2.20;99.40
17370;DHT22;8802;52.402;4.920;2024-01-11T02:00:30;2.20;99.50
17370;DHT22;8802;52.402;4.920;2024-01-11T02:02:58;2.10;99.50
17370;DHT22;8802;52.402;4.920;2024-01-11T02:05:25;2.10;99.60
17370;DHT22;8802;52.402;4.920;2024-01-11T02:07:52;2.00;99.80
17370;DHT22;8802;52.402;4.920;2024-01-11T02:10:19;1.90;99.90
17370;DHT22;8802;52.402;4.920;2024-01-11T02:12:46;1.90;99.90
17370;DHT22;8802;52.402;4.920;2024-01-11T02:15:14;1.90;99.90
17370;DHT22;8802;52.402;4.920;2024-01-11T02:17:42;1.90;99.90
17370;DHT22;8802;52.402;4.920;2024-01-11T02:20:10;1.90;99.90
17370;DHT22;8802;52.402;4.920;2024-01-11T02:22:39;1.90;99.90
17370;DHT22;8802;52.402;4.920;2024-01-11T02:25:08;1.90;99.90
17370;DHT22;8802;52.402;4.920;2024-01-11T02:27:45;1.90;99.90
17370;DHT22;8802;52.402;4.920;2024-01-11T02:30:12;1.90;99.90
17370;DHT22;8802;52.402;4.920;2024-01-11T02:32:39;1.90;99.90
17370;DHT22;8802;52.402;4.920;2024-01-11T02:35:07;1.80;99.90
17370;DHT22;8802;52.402;4.920;2024-01-11T02:37:35;1.80;99.90
17370;DHT22;8802;52.402;4.920;2024-01-11T02:40:03;1.80;99.90
17370;DHT22;8802;52.402;4.920;2024-01-11T02:42:32;1.80;99.90
17370;DHT22;8802;52.402;4.920;2024-01-11T02:44:59;1.80;99.90
17370;DHT22;8802;52.402;4.920;2024-01-11T02:47:25;1.70;99.90
17370;DHT22;8802;52.402;4.920;2024-01-11T02:49:52;1.70;99.90
17370;DHT22;8802;52.402;4.920;2024-01-11T02:52:19;1.70;99.90
17370;DHT22;8802;52.402;4.920;2024-01-11T02:54:46;1.70;99.90
17370;DHT22;8802;52.402;4.920;2024-01-11T02:57:13;1.70;99.90
17370;DHT22;8802;52.402;4.920;2024-01-11T02:59:43;1.70;99.90
17370;DHT22;8802;52.402;4.920;2024-01-11T03:02:10;1.70;99.90
17370;DHT22;8802;52.402;4.920;2024-01-11T03:04:37;1.70;99.90
17370;DHT22;8802;52.402;4.920;2024-01-11T03:07:04;1.60;99.90
17370;DHT22;8802;52.402;4.920;2024-01-11T03:09:30;1.60;99.90
17370;DHT22;8802;52.402;4.920;2024-01-11T03:11:57;1.60;99.90
17370;DHT22;8802;52.402;4.920;2024-01-11T03:14:24;1.60;99.90
17370;DHT22;8802;52.402;4.920;2024-01-11T03:16:52;1.60;99.90
17370;DHT22;8802;52.402;4.920;2024-01-11T03:19:19;1.60;99.90
17370;DHT22;8802;52.402;4.920;2024-01-11T03:21:46;1.50;99.90
17370;DHT22;8802;52.402;4.920;2024-01-11T03:24:13;1.50;99.90
17370;DHT22;8802;52.402;4.920;2024-01-11T03:26:41;1.50;99.90
17370;DHT22;8802;52.402;4.920;2024-01-11T03:29:08;1.50;99.90
17370;DHT22;8802;52.402;4.920;2024-01-11T03:31:35;1.50;99.90
17370;DHT22;8802;52.402;4.920;2024-01-11T03:34:04;1.50;99.90
17370;DHT22;8802;52.402;4.920;2024-01-11T03:36:31;1.60;99.90
17370;DHT22;8802;52.402;4.920;2024-01-11T03:38:58;1.60;99.90
17370;DHT22;8802;52.402;4.920;2024-01-11T03:41:25;1.60;99.90
17370;DHT22;8802;52.402;4.920;2024-01-11T03:43:52;1.60;99.90
17370;DHT22;8802;52.402;4.920;2024-01-11T03:46:18;1.70;99.90
17370;DHT22;8802;52.402;4.920;2024-01-11T03:48:45;1.70;99.90
17370;DHT22;8802;52.402;4.920;2024-01-11T03:51:14;1.70;99.90
17370;DHT22;8802;52.402;4.920;2024-01-11T03:53:40;1.70;99.90
17370;DHT22;8802;52.402;4.920;2024-01-11T03:56:07;1.70;99.90
17370;DHT22;8802;52.402;4.920;2024-01-11T03:58:36;1.70;99.90
17370;DHT22;8802;52.402;4.920;2024-01-11T04:01:04;1.70;99.90
17370;DHT22;8802;52.402;4.920;2024-01-11T04:03:32;1.70;99.90
17370;DHT22;8802;52.402;4.920;2024-01-11T04:05:59;1.70;99.90
17370;DHT22;8802;52.402;4.920;2024-01-11T04:08:27;1.60;99.90
17370;DHT22;8802;52.402;4.920;2024-01-11T04:10:54;1.60;99.90
17370;DHT22;8802;52.402;4.920;2024-01-11T04:13:21;1.60;99.90
17370;DHT22;8802;52.402;4.920;2024-01-11T04:15:48;1.60;99.90
17370;DHT22;8802;52.402;4.920;2024-01-11T04:18:15;1.60;99.90
17370;DHT22;8802;52.402;4.920;2024-01-11T04:20:42;1.50;99.90
17370;DHT22;8802;52.402;4.920;2024-01-11T04:23:09;1.50;99.90
17370;DHT22;8802;52.402;4.920;2024-01-11T04:25:37;1.50;99.90
17370;DHT22;8802;52.402;4.920;2024-01-11T04:28:04;1.50;99.90
17370;DHT22;8802;52.402;4.920;2024-01-11T04:30:31;1.50;99.90
17370;DHT22;8802;52.402;4.920;2024-01-11T04:32:58;1.40;99.90
17370;DHT22;8802;52.402;4.920;2024-01-11T04:35:25;1.40;99.90
17370;DHT22;8802;52.402;4.920;2024-01-11T04:37:51;1.40;99.90
17370;DHT22;8802;52.402;4.920;2024-01-11T04:40:18;1.30;99.90
17370;DHT22;8802;52.402;4.920;2024-01-11T04:42:46;1.30;99.90
17370;DHT22;8802;52.402;4.920;2024-01-11T04:45:13;1.30;99.90
17370;DHT22;8802;52.402;4.920;2024-01-11T04:47:40;1.30;99.90
17370;DHT22;8802;52.402;4.920;2024-01-11T04:50:08;1.30;99.90
17370;DHT22;8802;52.402;4.920;2024-01-11T04:52:34;1.30;99.90
17370;DHT22;8802;52.402;4.920;2024-01-11T04:55:01;1.30;99.90
17370;DHT22;8802;52.402;4.920;2024-01-11T04:57:28;1.30;99.90
17370;DHT22;8802;52.402;4.920;2024-01-11T04:59:56;1.30;99.90
17370;DHT22;8802;52.402;4.920;2024-01-11T05:02:23;1.30;99.90
17370;DHT22;8802;52.402;4.920;2024-01-11T05:04:50;1.30;99.90
17370;DHT22;8802;52.402;4.920;2024-01-11T05:07:17;1.30;99.90
17370;DHT22;8802;52.402;4.920;2024-01-11T05:09:43;1.40;99.90
17370;DHT22;8802;52.402;4.920;2024-01-11T05:12:10;1.40;99.90
17370;DHT22;8802;52.402;4.920;2024-01-11T05:14:37;1.40;99.90
17370;DHT22;8802;52.402;4.920;2024-01-11T05:17:05;1.50;99.90
17370;DHT22;8802;52.402;4.920;2024-01-11T05:19:33;1.50;99.90
17370;DHT22;8802;52.402;4.920;2024-01-11T05:22:00;1.50;99.90
17370;DHT22;8802;52.402;4.920;2024-01-11T05:24:27;1.60;99.90
17370;DHT22;8802;52.402;4.920;2024-01-11T05:26:53;1.60;99.90
17370;DHT22;8802;52.402;4.920;2024-01-11T05:29:20;1.70;99.90
17370;DHT22;8802;52.402;4.920;2024-01-11T05:31:47;1.70;99.90
17370;DHT22;8802;52.402;4.920;2024-01-11T05:34:15;1.70;99.90
17370;DHT22;8802;52.402;4.920;2024-01-11T05:36:42;1.80;99.90
17370;DHT22;8802;52.402;4.920;2024-01-11T05:39:09;1.80;99.90
17370;DHT22;8802;52.402;4.920;2024-01-11T05:41:36;1.80;99.90
17370;DHT22;8802;52.402;4.920;2024-01-11T05:44:03;1.80;99.90
17370;DHT22;8802;52.402;4.920;2024-01-11T05:46:30;1.80;99.90
17370;DHT22;8802;52.402;4.920;2024-01-11T05:48:56;1.90;99.90
17370;DHT22;8802;52.402;4.920;2024-01-11T05:51:28;1.90;99.90
17370;DHT22;8802;52.402;4.920;2024-01-11T05:53:55;1.90;99.90
17370;DHT22;8802;52.402;4.920;2024-01-11T05:56:22;1.90;99.90
17370;DHT22;8802;52.402;4.920;2024-01-11T05:58:49;1.90;99.90
17370;DHT22;8802;52.402;4.920;2024-01-11T06:01:16;1.90;99.90
17370;DHT22;8802;52.402;4.920;2024-01-11T06:03:43;1.90;99.90
17370;DHT22;8802;52.402;4.920;2024-01-11T06:06:10;1.90;99.90
17370;DHT22;8802;52.402;4.920;2024-01-11T06:08:38;1.90;99.90
17370;DHT22;8802;52.402;4.920;2024-01-11T06:11:05;1.90;99.90
17370;DHT22;8802;52.402;4.920;2024-01-11T06:13:33;1.80;99.90
17370;DHT22;8802;52.402;4.920;2024-01-11T06:15:59;1.80;99.90
17370;DHT22;8802;52.402;4.920;2024-01-11T06:18:26;1.80;99.90
17370;DHT22;8802;52.402;4.920;2024-01-11T06:20:53;1.70;99.90
17370;DHT22;8802;52.402;4.920;2024-01-11T06:23:20;1.70;99.90
17370;DHT22;8802;52.402;4.920;2024-01-11T06:25:48;1.60;99.90
17370;DHT22;8802;52.402;4.920;2024-01-11T06:28:15;1.60;99.90
17370;DHT22;8802;52.402;4.920;2024-01-11T06:30:42;1.60;99.90
17370;DHT22;8802;52.402;4.920;2024-01-11T06:33:09;1.60;99.90
17370;DHT22;8802;52.402;4.920;2024-01-11T06:35:36;1.50;99.90
17370;DHT22;8802;52.402;4.920;2024-01-11T06:38:03;1.50;99.90
17370;DHT22;8802;52.402;4.920;2024-01-11T06:40:30;1.50;99.90
17370;DHT22;8802;52.402;4.920;2024-01-11T06:42:58;1.50;99.90
17370;DHT22;8802;52.402;4.920;2024-01-11T06:45:25;1.50;99.90
17370;DHT22;8802;52.402;4.920;2024-01-11T06:47:52;1.40;99.90
17370;DHT22;8802;52.402;4.920;2024-01-11T06:50:19;1.50;99.90
17370;DHT22;8802;52.402;4.920;2024-01-11T06:52:46;1.40;99.90
17370;DHT22;8802;52.402;4.920;2024-01-11T06:55:13;1.50;99.90
17370;DHT22;8802;52.402;4.920;2024-01-11T06:57:39;1.50;99.90
17370;DHT22;8802;52.402;4.920;2024-01-11T07:00:08;1.50;99.90
17370;DHT22;8802;52.402;4.920;2024-01-11T07:02:35;1.50;99.90
17370;DHT22;8802;52.402;4.920;2024-01-11T07:05:02;1.60;99.90
17370;DHT22;8802;52.402;4.920;2024-01-11T07:07:29;1.60;99.90
17370;DHT22;8802;52.402;4.920;2024-01-11T07:09:56;1.60;99.90
17370;DHT22;8802;52.402;4.920;2024-01-11T07:12:23;1.70;99.90
17370;DHT22;8802;52.402;4.920;2024-01-11T07:14:51;1.70;99.90
17370;DHT22;8802;52.402;4.920;2024-01-11T07:17:19;1.70;99.90
17370;DHT22;8802;52.402;4.920;2024-01-11T07:19:46;1.80;99.90
17370;DHT22;8802;52.402;4.920;2024-01-11T07:22:13;1.80;99.90
17370;DHT22;8802;52.402;4.920;2024-01-11T07:24:40;1.80;99.90
17370;DHT22;8802;52.402;4.920;2024-01-11T07:27:06;1.80;99.90
17370;DHT22;8802;52.402;4.920;2024-01-11T07:29:34;1.90;99.90
17370;DHT22;8802;52.402;4.920;2024-01-11T07:32:00;1.90;99.90
17370;DHT22;8802;52.402;4.920;2024-01-11T07:34:30;1.90;99.90
17370;DHT22;8802;52.402;4.920;2024-01-11T07:36:58;1.90;99.90
17370;DHT22;8802;52.402;4.920;2024-01-11T07:39:25;1.90;99.90
17370;DHT22;8802;52.402;4.920;2024-01-11T07:41:51;2.00;99.90
17370;DHT22;8802;52.402;4.920;2024-01-11T07:44:19;2.00;99.90
17370;DHT22;8802;52.402;4.920;2024-01-11T07:46:46;2.00;99.90
17370;DHT22;8802;52.402;4.920;2024-01-11T07:49:13;2.20;99.90
17370;DHT22;8802;52.402;4.920;2024-01-11T07:51:42;2.00;99.90
17370;DHT22;8802;52.402;4.920;2024-01-11T07:54:09;2.00;99.90
17370;DHT22;8802;52.402;4.920;2024-01-11T07:56:35;2.10;99.90
17370;DHT22;8802;52.402;4.920;2024-01-11T07:59:02;2.10;99.90
17370;DHT22;8802;52.402;4.920;2024-01-11T08:01:30;2.10;99.90
17370;DHT22;8802;52.402;4.920;2024-01-11T08:03:56;2.10;99.90
17370;DHT22;8802;52.402;4.920;2024-01-11T08:06:23;2.10;99.90
17370;DHT22;8802;52.402;4.920;2024-01-11T08:08:51;2.10;99.90
17370;DHT22;8802;52.402;4.920;2024-01-11T08:11:18;2.20;99.90
17370;DHT22;8802;52.402;4.920;2024-01-11T08:13:45;2.20;99.90
17370;DHT22;8802;52.402;4.920;2024-01-11T08:16:15;2.20;99.90
17370;DHT22;8802;52.402;4.920;2024-01-11T08:18:43;2.30;99.90
17370;DHT22;8802;52.402;4.920;2024-01-11T08:21:11;2.30;99.90
17370;DHT22;8802;52.402;4.920;2024-01-11T08:23:39;2.30;99.90
17370;DHT22;8802;52.402;4.920;2024-01-11T08:26:11;2.50;99.90
17370;DHT22;8802;52.402;4.920;2024-01-11T08:28:38;2.40;99.90
17370;DHT22;8802;52.402;4.920;2024-01-11T08:31:05;2.40;99.90
17370;DHT22;8802;52.402;4.920;2024-01-11T08:33:32;2.40;99.90
17370;DHT22;8802;52.402;4.920;2024-01-11T08:35:59;2.40;99.90
17370;DHT22;8802;52.402;4.920;2024-01-11T08:38:26;2.40;99.90
17370;DHT22;8802;52.402;4.920;2024-01-11T08:40:54;2.50;99.90
17370;DHT22;8802;52.402;4.920;2024-01-11T08:43:23;2.50;99.90
17370;DHT22;8802;52.402;4.920;2024-01-11T08:45:50;2.50;99.90
17370;DHT22;8802;52.402;4.920;2024-01-11T08:48:17;2.50;99.90
17370;DHT22;8802;52.402;4.920;2024-01-11T08:50:43;2.50;99.90
17370;DHT22;8802;52.402;4.920;2024-01-11T08:53:11;2.50;99.90
17370;DHT22;8802;52.402;4.920;2024-01-11T08:55:37;2.60;99.90
17370;DHT22;8802;52.402;4.920;2024-01-11T08:58:04;2.60;99.90
17370;DHT22;8802;52.402;4.920;2024-01-11T09:00:33;2.60;99.90
17370;DHT22;8802;52.402;4.920;2024-01-11T09:03:00;2.60;99.90
17370;DHT22;8802;52.402;4.920;2024-01-11T09:05:27;2.70;99.90
17370;DHT22;8802;52.402;4.920;2024-01-11T09:07:57;2.70;99.90
17370;DHT22;8802;52.402;4.920;2024-01-11T09:10:24;2.80;99.90
17370;DHT22;8802;52.402;4.920;2024-01-11T09:12:51;2.80;99.90
17370;DHT22;8802;52.402;4.920;2024-01-11T09:15:18;2.90;99.90
17370;DHT22;8802;52.402;4.920;2024-01-11T09:17:46;2.90;99.90
17370;DHT22;8802;52.402;4.920;2024-01-11T09:20:13;3.00;99.90
17370;DHT22;8802;52.402;4.920;2024-01-11T09:22:40;3.00;99.90
17370;DHT22;8802;52.402;4.920;2024-01-11T09:25:07;3.10;99.90
17370;DHT22;8802;52.402;4.920;2024-01-11T09:27:35;3.10;99.90
17370;DHT22;8802;52.402;4.920;2024-01-11T09:30:02;3.20;99.90
17370;DHT22;8802;52.402;4.920;2024-01-11T09:32:29;3.20;99.90
17370;DHT22;8802;52.402;4.920;2024-01-11T09:34:58;3.30;99.90
17370;DHT22;8802;52.402;4.920;2024-01-11T09:37:24;3.30;99.90
17370;DHT22;8802;52.402;4.920;2024-01-11T09:39:51;3.40;99.90
17370;DHT22;8802;52.402;4.920;2024-01-11T09:42:18;3.40;99.90
17370;DHT22;8802;52.402;4.920;2024-01-11T09:44:46;3.40;99.90
17370;DHT22;8802;52.402;4.920;2024-01-11T09:47:15;3.50;99.90
17370;DHT22;8802;52.402;4.920;2024-01-11T09:49:44;3.50;99.90
17370;DHT22;8802;52.402;4.920;2024-01-11T09:52:13;3.60;99.90
17370;DHT22;8802;52.402;4.920;2024-01-11T09:54:42;3.60;99.90
17370;DHT22;8802;52.402;4.920;2024-01-11T09:57:09;3.70;99.90
17370;DHT22;8802;52.402;4.920;2024-01-11T09:59:37;3.70;99.90
17370;DHT22;8802;52.402;4.920;2024-01-11T10:02:04;3.70;99.90
17370;DHT22;8802;52.402;4.920;2024-01-11T10:04:33;3.80;99.90
17370;DHT22;8802;52.402;4.920;2024-01-11T10:07:01;3.80;99.90
17370;DHT22;8802;52.402;4.920;2024-01-11T10:09:31;3.90;99.90
17370;DHT22;8802;52.402;4.920;2024-01-11T10:11:58;3.90;99.90
17370;DHT22;8802;52.402;4.920;2024-01-11T10:14:26;4.00;99.90
17370;DHT22;8802;52.402;4.920;2024-01-11T10:16:54;4.00;99.90
17370;DHT22;8802;52.402;4.920;2024-01-11T10:19:21;4.10;99.90
17370;DHT22;8802;52.402;4.920;2024-01-11T10:21:48;4.10;99.90
17370;DHT22;8802;52.402;4.920;2024-01-11T10:24:18;4.20;99.90
17370;DHT22;8802;52.402;4.920;2024-01-11T10:26:47;4.20;99.90
17370;DHT22;8802;52.402;4.920;2024-01-11T10:29:14;4.20;99.90
17370;DHT22;8802;52.402;4.920;2024-01-11T10:31:41;4.30;99.90
17370;DHT22;8802;52.402;4.920;2024-01-11T10:34:08;4.30;99.90
17370;DHT22;8802;52.402;4.920;2024-01-11T10:36:35;4.30;99.90
17370;DHT22;8802;52.402;4.920;2024-01-11T10:39:03;4.40;99.90
17370;DHT22;8802;52.402;4.920;2024-01-11T10:41:35;4.40;99.90
17370;DHT22;8802;52.402;4.920;2024-01-11T10:44:11;4.40;99.90
17370;DHT22;8802;52.402;4.920;2024-01-11T10:46:41;4.50;99.90
17370;DHT22;8802;52.402;4.920;2024-01-11T10:49:10;4.50;99.90
17370;DHT22;8802;52.402;4.920;2024-01-11T10:51:39;4.50;99.90
17370;DHT22;8802;52.402;4.920;2024-01-11T10:54:08;4.50;99.90
17370;DHT22;8802;52.402;4.920;2024-01-11T10:56:35;4.60;99.90
17370;DHT22;8802;52.402;4.920;2024-01-11T10:59:06;4.60;99.90
17370;DHT22;8802;52.402;4.920;2024-01-11T11:01:34;4.60;99.90
17370;DHT22;8802;52.402;4.920;2024-01-11T11:04:01;4.70;99.90
17370;DHT22;8802;52.402;4.920;2024-01-11T11:06:29;4.70;99.90
17370;DHT22;8802;52.402;4.920;2024-01-11T11:08:57;4.80;99.90
17370;DHT22;8802;52.402;4.920;2024-01-11T11:11:25;4.80;99.90
17370;DHT22;8802;52.402;4.920;2024-01-11T11:13:53;4.80;99.90
17370;DHT22;8802;52.402;4.920;2024-01-11T11:16:22;4.90;99.90
17370;DHT22;8802;52.402;4.920;2024-01-11T11:18:52;4.90;99.90
17370;DHT22;8802;52.402;4.920;2024-01-11T11:21:20;5.00;99.90
17370;DHT22;8802;52.402;4.920;2024-01-11T11:23:50;5.00;99.90
17370;DHT22;8802;52.402;4.920;2024-01-11T11:26:17;5.10;99.90
17370;DHT22;8802;52.402;4.920;2024-01-11T11:28:44;5.10;99.90
17370;DHT22;8802;52.402;4.920;2024-01-11T11:31:11;5.20;99.90
17370;DHT22;8802;52.402;4.920;2024-01-11T11:33:40;5.20;99.90
17370;DHT22;8802;52.402;4.920;2024-01-11T11:36:12;5.30;99.90
17370;DHT22;8802;52.402;4.920;2024-01-11T11:38:39;5.30;99.90
17370;DHT22;8802;52.402;4.920;2024-01-11T11:41:07;5.40;99.90
17370;DHT22;8802;52.402;4.920;2024-01-11T11:43:34;5.40;99.90
17370;DHT22;8802;52.402;4.920;2024-01-11T11:46:02;5.40;99.90
17370;DHT22;8802;52.402;4.920;2024-01-11T11:48:50;5.50;99.90
17370;DHT22;8802;52.402;4.920;2024-01-11T11:51:21;5.50;99.90
17370;DHT22;8802;52.402;4.920;2024-01-11T11:53:49;5.60;99.90
17370;DHT22;8802;52.402;4.920;2024-01-11T11:56:17;5.60;99.90
17370;DHT22;8802;52.402;4.920;2024-01-11T11:58:46;5.60;99.90
17370;DHT22;8802;52.402;4.920;2024-01-11T12:01:14;5.70;99.90
17370;DHT22;8802;52.402;4.920;2024-01-11T12:03:43;5.60;99.90
17370;DHT22;8802;52.402;4.920;2024-01-11T12:06:17;5.80;99.90
17370;DHT22;8802;52.402;4.920;2024-01-11T12:08:44;5.80;99.90
17370;DHT22;8802;52.402;4.920;2024-01-11T12:11:15;5.90;99.90
17370;DHT22;8802;52.402;4.920;2024-01-11T12:13:42;5.90;99.90
17370;DHT22;8802;52.402;4.920;2024-01-11T12:16:10;5.90;99.90
17370;DHT22;8802;52.402;4.920;2024-01-11T12:18:37;5.90;99.90
17370;DHT22;8802;52.402;4.920;2024-01-11T12:21:04;6.00;99.90
17370;DHT22;8802;52.402;4.920;2024-01-11T12:23:34;6.00;99.90
17370;DHT22;8802;52.402;4.920;2024-01-11T12:26:02;6.00;99.90
17370;DHT22;8802;52.402;4.920;2024-01-11T12:28:31;6.10;99.90
17370;DHT22;8802;52.402;4.920;2024-01-11T12:30:58;6.10;99.90
17370;DHT22;8802;52.402;4.920;2024-01-11T12:33:26;6.20;99.90
17370;DHT22;8802;52.402;4.920;2024-01-11T12:35:53;6.20;99.90
17370;DHT22;8802;52.402;4.920;2024-01-11T12:38:20;6.20;99.90
17370;DHT22;8802;52.402;4.920;2024-01-11T12:40:49;6.20;99.90
17370;DHT22;8802;52.402;4.920;2024-01-11T12:43:16;6.20;99.90
17370;DHT22;8802;52.402;4.920;2024-01-11T12:45:44;6.20;99.90
17370;DHT22;8802;52.402;4.920;2024-01-11T12:48:11;6.30;99.90
17370;DHT22;8802;52.402;4.920;2024-01-11T12:50:39;6.30;99.90
17370;DHT22;8802;52.402;4.920;2024-01-11T12:53:08;6.40;99.90
17370;DHT22;8802;52.402;4.920;2024-01-11T12:55:37;6.40;99.90
17370;DHT22;8802;52.402;4.920;2024-01-11T12:58:07;6.40;99.90
17370;DHT22;8802;52.402;4.920;2024-01-11T13:00:35;6.40;99.90
17370;DHT22;8802;52.402;4.920;2024-01-11T13:03:02;6.50;99.90
17370;DHT22;8802;52.402;4.920;2024-01-11T13:05:29;6.50;99.90
17370;DHT22;8802;52.402;4.920;2024-01-11T13:08:00;6.50;99.90
17370;DHT22;8802;52.402;4.920;2024-01-11T13:10:28;6.50;99.90
17370;DHT22;8802;52.402;4.920;2024-01-11T13:12:58;6.60;99.90
17370;DHT22;8802;52.402;4.920;2024-01-11T13:15:26;6.60;99.90
17370;DHT22;8802;52.402;4.920;2024-01-11T13:17:54;6.70;99.90
17370;DHT22;8802;52.402;4.920;2024-01-11T13:20:21;6.60;99.90
17370;DHT22;8802;52.402;4.920;2024-01-11T13:22:49;6.70;99.90
17370;DHT22;8802;52.402;4.920;2024-01-11T13:25:16;6.70;99.90
17370;DHT22;8802;52.402;4.920;2024-01-11T13:27:44;6.70;99.90
17370;DHT22;8802;52.402;4.920;2024-01-11T13:30:11;6.70;99.90
17370;DHT22;8802;52.402;4.920;2024-01-11T13:32:40;6.70;99.90
17370;DHT22;8802;52.402;4.920;2024-01-11T13:35:07;6.80;99.90
17370;DHT22;8802;52.402;4.920;2024-01-11T13:37:34;6.80;99.90
17370;DHT22;8802;52.402;4.920;2024-01-11T13:40:01;6.90;99.90
17370;DHT22;8802;52.402;4.920;2024-01-11T13:42:29;6.80;99.90
17370;DHT22;8802;52.402;4.920;2024-01-11T13:44:55;6.90;99.90
17370;DHT22;8802;52.402;4.920;2024-01-11T13:47:22;6.90;99.90
17370;DHT22;8802;52.402;4.920;2024-01-11T13:49:51;6.90;99.90
17370;DHT22;8802;52.402;4.920;2024-01-11T13:52:17;6.90;99.90
17370;DHT22;8802;52.402;4.920;2024-01-11T13:54:44;6.90;99.90
17370;DHT22;8802;52.402;4.920;2024-01-11T13:57:11;6.90;99.90
17370;DHT22;8802;52.402;4.920;2024-01-11T13:59:38;7.00;99.90
17370;DHT22;8802;52.402;4.920;2024-01-11T14:02:05;7.00;99.90
17370;DHT22;8802;52.402;4.920;2024-01-11T14:04:32;7.00;99.90
17370;DHT22;8802;52.402;4.920;2024-01-11T14:07:01;7.00;99.90
17370;DHT22;8802;52.402;4.920;2024-01-11T14:09:29;7.00;99.90
17370;DHT22;8802;52.402;4.920;2024-01-11T14:11:56;7.00;99.90
17370;DHT22;8802;52.402;4.920;2024-01-11T14:14:22;7.00;99.90
17370;DHT22;8802;52.402;4.920;2024-01-11T14:16:49;7.00;99.90
17370;DHT22;8802;52.402;4.920;2024-01-11T14:19:17;7.00;99.90
17370;DHT22;8802;52.402;4.920;2024-01-11T14:21:44;7.00;99.90
17370;DHT22;8802;52.402;4.920;2024-01-11T14:24:12;7.00;99.90
17370;DHT22;8802;52.402;4.920;2024-01-11T14:26:39;7.00;99.90
17370;DHT22;8802;52.402;4.920;2024-01-11T14:29:06;7.10;99.90
17370;DHT22;8802;52.402;4.920;2024-01-11T14:31:33;7.00;99.90
17370;DHT22;8802;52.402;4.920;2024-01-11T14:34:00;7.00;99.90
17370;DHT22;8802;52.402;4.920;2024-01-11T14:36:27;7.10;99.90
17370;DHT22;8802;52.402;4.920;2024-01-11T14:38:54;7.00;99.90
17370;DHT22;8802;52.402;4.920;2024-01-11T14:41:22;7.00;99.90
17370;DHT22;8802;52.402;4.920;2024-01-11T14:43:49;7.00;99.90
17370;DHT22;8802;52.402;4.920;2024-01-11T14:46:16;7.00;99.90
17370;DHT22;8802;52.402;4.920;2024-01-11T14:48:42;7.00;99.90
17370;DHT22;8802;52.402;4.920;2024-01-11T14:51:09;7.00;99.90
17370;DHT22;8802;52.402;4.920;2024-01-11T14:53:36;7.00;99.90
17370;DHT22;8802;52.402;4.920;2024-01-11T14:56:03;7.00;99.90
17370;DHT22;8802;52.402;4.920;2024-01-11T14:58:32;7.00;99.90
17370;DHT22;8802;52.402;4.920;2024-01-11T15:00:59;7.00;99.90
17370;DHT22;8802;52.402;4.920;2024-01-11T15:03:25;7.00;99.90
17370;DHT22;8802;52.402;4.920;2024-01-11T15:05:52;7.00;99.90
17370;DHT22;8802;52.402;4.920;2024-01-11T15:08:19;7.00;99.90
17370;DHT22;8802;52.402;4.920;2024-01-11T15:10:46;7.00;99.90
17370;DHT22;8802;52.402;4.920;2024-01-11T15:13:13;7.00;99.90
17370;DHT22;8802;52.402;4.920;2024-01-11T15:15:42;7.00;99.90
17370;DHT22;8802;52.402;4.920;2024-01-11T15:18:08;7.00;99.90
17370;DHT22;8802;52.402;4.920;2024-01-11T15:20:36;7.00;99.90
17370;DHT22;8802;52.402;4.920;2024-01-11T15:23:03;7.00;99.90
17370;DHT22;8802;52.402;4.920;2024-01-11T15:25:30;7.00;99.90
17370;DHT22;8802;52.402;4.920;2024-01-11T15:27:57;7.00;99.90
17370;DHT22;8802;52.402;4.920;2024-01-11T15:30:24;7.00;99.90
17370;DHT22;8802;52.402;4.920;2024-01-11T15:32:52;7.00;99.90
17370;DHT22;8802;52.402;4.920;2024-01-11T15:35:20;7.00;99.90
17370;DHT22;8802;52.402;4.920;2024-01-11T15:37:47;7.00;99.90
17370;DHT22;8802;52.402;4.920;2024-01-11T15:40:14;6.90;99.90
17370;DHT22;8802;52.402;4.920;2024-01-11T15:42:41;7.00;99.90
17370;DHT22;8802;52.402;4.920;2024-01-11T15:45:08;7.00;99.90
17370;DHT22;8802;52.402;4.920;2024-01-11T15:47:36;7.00;99.90
17370;DHT22;8802;52.402;4.920;2024-01-11T15:50:06;7.00;99.90
17370;DHT22;8802;52.402;4.920;2024-01-11T15:52:36;7.00;99.90
17370;DHT22;8802;52.402;4.920;2024-01-11T15:55:04;7.00;99.90
17370;DHT22;8802;52.402;4.920;2024-01-11T15:57:31;7.00;99.90
17370;DHT22;8802;52.402;4.920;2024-01-11T15:59:58;7.00;99.90
17370;DHT22;8802;52.402;4.920;2024-01-11T16:02:28;7.00;99.90